Terminal Aerodrome Forecast
Issued by NWS Sioux Falls, SD

Home | Current Version | Previous Version | Graphics & Text | Print | Product List | Glossary On
Versions: 1 2 3 4 5 6 7 8 9 10 11 12 13 14 15 16
041
FTUS43 KFSD 311720
TAFFSD
TAF
KFSD 311720Z 3118/0118 30010KT P6SM SCT200
     FM312000 25010KT P6SM SCT120 SCT200
     FM011300 29009KT P6SM SCT200
     FM011600 30013KT P6SM SCT040=

USA.gov is the U.S. government's official web portal to all federal, state and local government web resources and services.